Time;durP1;ratioP1;P1;durP2;ratioP2;P2;SDS_P1;SDS_P2;PMS_P1;PMS_P2;Temp;Humidity;BMP_temperature;BMP_pressure;BME280_temperature;BME280_humidity;BME280_pressure;Samples;Min_cycle;Max_cycle;Signal;HPM_P1;HPM_P2
2023/05/22 00:01:10;;;;;;;44.95;35.13;;;16.00;78.00;;;;;;6218793;22;20043;-92
2023/05/22 00:03:41;;;;;;;41.63;31.65;;;16.00;78.00;;;;;;6181524;22;20069;-93
2023/05/22 00:06:23;;;;;;;;;;;;;;;;;;;;;
2023/05/22 00:09:04;;;;;;;45.88;31.77;;;16.00;78.10;;;;;;6245117;22;20222;-90
2023/05/22 00:11:33;;;;;;;40.85;31.92;;;16.00;78.10;;;;;;6249223;22;20027;-92
2023/05/22 00:14:12;;;;;;;40.75;32.00;;;16.00;78.10;;;;;;6167961;23;20095;-92
2023/05/22 00:16:46;;;;;;;40.83;32.67;;;16.00;78.20;;;;;;6166010;23;20022;-92
2023/05/22 00:19:29;;;;;;;40.13;30.92;;;15.90;78.20;;;;;;6204909;22;20026;-92
2023/05/22 00:22:57;;;;;;;;;;;;;;;;;;;;;
2023/05/22 00:26:11;;;;;;;42.35;35.17;;;15.80;78.90;;;;;;6078879;22;20091;-93
2023/05/22 00:28:42;;;;;;;44.47;35.97;;;15.80;78.90;;;;;;6219484;22;20026;-93
2023/05/22 00:31:31;;;;;;;46.17;36.85;;;15.70;79.10;;;;;;6250087;22;20046;-93
2023/05/22 00:38:02;;;;;;;;;;;;;;;;;;;;;
2023/05/22 00:41:53;;;;;;;;;;;;;;;;;;;;;
2023/05/22 00:45:44;;;;;;;;;;;;;;;;;;;;;
2023/05/22 00:48:56;;;;;;;;;;;;;;;;;;;;;
2023/05/22 00:52:21;;;;;;;;;;;;;;;;;;;;;
2023/05/22 00:55:38;;;;;;;43.97;34.00;;;15.60;79.70;;;;;;6180896;23;20522;-91
2023/05/22 00:58:56;;;;;;;45.13;34.67;;;15.60;79.40;;;;;;6106510;23;20032;-92
2023/05/22 01:01:50;;;;;;;;;;;15.60;79.70;;;;;;6137812;23;20531;-93
2023/05/22 01:12:28;;;;;;;46.72;36.47;;;15.60;80.30;;;;;;5870977;24;20420;-93
2023/05/22 01:15:22;;;;;;;41.97;34.03;;;15.60;80.30;;;;;;5965127;23;20075;-92
2023/05/22 01:22:26;;;;;;;41.67;31.52;;;15.60;80.50;;;;;;6134063;23;20463;-92
2023/05/22 01:26:04;;;;;;;;;;;;;;;;;;;;;
2023/05/22 01:29:11;;;;;;;46.50;35.15;;;15.70;80.40;;;;;;6141776;23;20039;-93
2023/05/22 01:32:13;;;;;;;40.97;33.60;;;15.70;80.00;;;;;;6139323;23;20071;-92
2023/05/22 01:35:08;;;;;;;39.92;32.30;;;15.70;79.80;;;;;;6036092;23;20030;-93
2023/05/22 01:41:27;;;;;;;41.58;34.58;;;15.80;79.70;;;;;;6209718;23;20024;-92
2023/05/22 01:43:56;;;;;;;40.33;33.90;;;15.80;79.60;;;;;;6193706;23;20028;-92
2023/05/22 01:47:09;;;;;;;;;;;;;;;;;;;;;
2023/05/22 01:50:10;;;;;;;44.05;33.45;;;15.80;79.50;;;;;;6176671;22;20031;-94
2023/05/22 01:52:57;;;;;;;38.45;32.38;;;15.80;79.50;;;;;;6187556;23;20019;-92
2023/05/22 01:56:22;;;;;;;41.28;34.35;;;15.80;79.40;;;;;;6240707;22;20034;-92
2023/05/22 02:04:00;;;;;;;;;;;;;;;;;;;;;
2023/05/22 02:21:17;;;;;;;42.78;34.28;;;15.80;79.40;;;;;;5563357;21;17896885;-93
2023/05/22 02:24:08;;;;;;;;;;;;;;;;;;;;;
2023/05/22 02:30:44;;;;;;;47.95;36.92;;;15.60;79.20;;;;;;6045760;23;20025;-92
2023/05/22 02:34:21;;;;;;;;;;;;;;;;;;;;;
2023/05/22 02:41:58;;;;;;;49.40;39.30;;;15.60;79.40;;;;;;5918117;23;20069;-93
2023/05/22 02:44:49;;;;;;;;;;;;;;;;;;;;;
2023/05/22 02:54:22;;;;;;;47.58;38.58;;;15.40;79.50;;;;;;5895073;24;20077;-92
2023/05/22 02:57:02;;;;;;;51.90;41.15;;;15.40;79.50;;;;;;5983715;23;20072;-94
2023/05/22 02:59:37;;;;;;;49.47;39.28;;;15.40;79.80;;;;;;6159905;23;20039;-92
2023/05/22 03:02:35;;;;;;;50.50;39.75;;;15.40;79.60;;;;;;6193337;22;20457;-91
2023/05/22 03:05:27;;;;;;;48.25;39.15;;;15.40;79.70;;;;;;6182448;23;20050;-92
2023/05/22 03:08:04;;;;;;;56.80;39.38;;;15.40;79.80;;;;;;6158466;22;20062;-93
2023/05/22 03:10:41;;;;;;;53.42;40.28;;;15.40;79.80;;;;;;6225556;23;20450;-92
2023/05/22 03:13:12;;;;;;;47.15;37.45;;;15.40;79.80;;;;;;6223575;23;20042;-91
2023/05/22 03:15:39;;;;;;;46.08;38.50;;;15.40;79.80;;;;;;6225579;23;20105;-91
2023/05/22 03:18:04;;;;;;;52.33;42.13;;;15.40;79.80;;;;;;6174974;23;20017;-92
2023/05/22 03:20:53;;;;;;;55.55;42.35;;;15.40;79.90;;;;;;6192437;23;20056;-91
2023/05/22 03:23:49;;;;;;;56.40;42.13;;;15.40;80.00;;;;;;6195077;23;20024;-92
2023/05/22 03:26:34;;;;;;;57.05;40.70;;;15.40;79.90;;;;;;6218510;23;20012;-92
2023/05/22 03:29:02;;;;;;;51.88;40.78;;;15.30;79.90;;;;;;6213561;23;20035;-91
2023/05/22 03:31:32;;;;;;;59.00;42.78;;;15.30;79.90;;;;;;6218559;23;20016;-92
2023/05/22 03:34:08;;;;;;;;;;;;;;;;;;;;;
2023/05/22 03:36:51;;;;;;;56.83;41.45;;;15.30;80.00;;;;;;6238387;23;20082;-92
2023/05/22 03:40:08;;;;;;;59.63;43.15;;;15.30;80.10;;;;;;6181006;23;20092;-92
2023/05/22 04:00:05;;;;;;;;;;;;;;;;;;;;;
2023/05/22 04:15:52;;;;;;;54.92;43.58;;;15.00;80.10;;;;;;5299120;23;21252777;-90
2023/05/22 04:18:31;;;;;;;53.58;43.00;;;15.00;80.10;;;;;;6170636;23;20021;-91
2023/05/22 04:20:57;;;;;;;54.75;43.95;;;15.10;80.00;;;;;;6165330;23;20020;-89
2023/05/22 04:23:42;;;;;;;55.08;41.92;;;15.20;80.10;;;;;;6163097;23;20051;-90
2023/05/22 04:26:16;;;;;;;58.90;42.97;;;15.20;80.20;;;;;;6141017;23;20024;-91
2023/05/22 04:28:51;;;;;;;52.80;41.10;;;15.20;80.20;;;;;;6110238;23;20020;-93
2023/05/22 04:31:46;;;;;;;51.00;39.60;;;15.20;80.30;;;;;;6165496;23;20020;-91
2023/05/22 04:34:18;;;;;;;46.50;37.45;;;15.20;80.30;;;;;;6176413;23;20016;-91
2023/05/22 04:36:45;;;;;;;45.40;35.88;;;15.20;80.20;;;;;;6159461;23;20103;-93
2023/05/22 04:39:26;;;;;;;47.10;34.87;;;15.30;80.10;;;;;;6190125;23;20075;-92
2023/05/22 04:41:55;;;;;;;44.22;34.75;;;15.30;80.10;;;;;;6165307;23;20013;-91
2023/05/22 04:44:23;;;;;;;45.20;34.10;;;15.30;80.10;;;;;;6151506;23;20094;-92
2023/05/22 04:46:56;;;;;;;44.95;34.80;;;15.40;80.00;;;;;;6159024;23;20031;-92
2023/05/22 04:49:25;;;;;;;40.15;34.30;;;15.40;79.90;;;;;;6146224;23;20028;-91
2023/05/22 04:52:14;;;;;;;40.83;32.97;;;15.40;79.90;;;;;;6165321;23;20031;-92
2023/05/22 04:54:42;;;;;;;44.63;34.30;;;15.40;79.80;;;;;;6150450;23;20142;-91
2023/05/22 04:57:23;;;;;;;40.53;32.35;;;15.50;79.70;;;;;;6129833;23;20040;-92
2023/05/22 04:59:52;;;;;;;40.05;31.48;;;15.50;79.70;;;;;;6117330;23;20021;-91
2023/05/22 05:02:34;;;;;;;42.42;31.95;;;15.50;79.60;;;;;;6185303;23;20017;-92
2023/05/22 05:05:00;;;;;;;39.35;31.33;;;15.50;79.50;;;;;;6140066;23;20071;-92
2023/05/22 05:08:06;;;;;;;38.65;29.75;;;15.60;79.50;;;;;;6164528;23;20099;-93
2023/05/22 05:10:38;;;;;;;36.83;28.98;;;15.60;79.50;;;;;;6106522;23;20115;-91
2023/05/22 05:13:32;;;;;;;38.90;29.55;;;15.60;79.40;;;;;;6091348;23;20033;-92
2023/05/22 05:16:26;;;;;;;38.72;26.75;;;15.60;79.40;;;;;;6100286;23;20017;-92
2023/05/22 05:23:09;;;;;;;;;;;;;;;;;;;;;
2023/05/22 05:26:42;;;;;;;;;;;;;;;;;;;;;
2023/05/22 05:29:13;;;;;;;29.75;20.25;;;15.80;79.30;;;;;;6025411;23;20021;-92
2023/05/22 05:31:55;;;;;;;33.63;18.42;;;15.80;79.30;;;;;;6133487;23;20024;-93
2023/05/22 05:34:26;;;;;;;35.60;18.30;;;15.80;79.10;;;;;;6048928;23;20028;-92
2023/05/22 05:47:53;;;;;;;34.55;19.63;;;15.80;79.00;;;;;;5989053;23;20023;-91
2023/05/22 05:50:21;;;;;;;30.67;20.65;;;15.80;79.00;;;;;;5988170;23;20027;-91
2023/05/22 05:57:13;;;;;;;33.85;19.98;;;15.60;79.20;;;;;;6037396;23;20023;-94
2023/05/22 05:59:45;;;;;;;31.75;21.52;;;15.40;79.30;;;;;;5981110;23;20466;-94
2023/05/22 06:02:50;;;;;;;31.45;21.25;;;15.40;79.20;;;;;;6067889;23;20407;-92
2023/05/22 06:05:40;;;;;;;35.75;20.35;;;15.30;79.50;;;;;;6072987;23;20487;-91
2023/05/22 06:13:16;;;;;;;34.05;21.80;;;15.20;80.20;;;;;;6006893;23;20035;-93
2023/05/22 06:20:30;;;;;;;33.33;17.52;;;15.20;80.20;;;;;;5938690;24;20081;-92
2023/05/22 06:27:08;;;;;;;37.67;17.88;;;15.00;80.20;;;;;;5840960;24;20485;-94
2023/05/22 06:30:21;;;;;;;34.47;16.48;;;15.00;80.20;;;;;;5806451;24;20520;-93
2023/05/22 06:33:33;;;;;;;38.30;16.10;;;15.00;80.40;;;;;;5796230;24;20079;-92
2023/05/22 06:37:05;;;;;;;35.20;15.00;;;15.00;80.40;;;;;;5892260;23;20032;-93
2023/05/22 06:40:29;;;;;;;30.95;14.73;;;14.90;80.50;;;;;;6000315;23;20439;-95
2023/05/22 06:46:44;;;;;;;33.28;14.25;;;14.90;80.70;;;;;;6063854;23;20018;-93
2023/05/22 06:49:25;;;;;;;30.88;12.95;;;14.90;80.60;;;;;;5991386;23;20093;-92
2023/05/22 06:51:51;;;;;;;26.88;13.27;;;14.90;80.70;;;;;;6044764;23;20025;-93
2023/05/22 06:54:28;;;;;;;31.67;13.48;;;14.90;80.70;;;;;;6043026;23;20090;-93
2023/05/22 06:57:00;;;;;;;27.00;13.93;;;15.00;80.80;;;;;;6038507;23;20054;-93
2023/05/22 06:59:50;;;;;;;32.85;13.88;;;15.00;80.80;;;;;;5970281;23;20031;-92
2023/05/22 07:02:18;;;;;;;32.97;13.90;;;15.00;80.80;;;;;;5982105;23;20080;-92
2023/05/22 07:04:51;;;;;;;22.58;12.13;;;15.00;80.70;;;;;;5953706;23;20338;-96
2023/05/22 07:07:48;;;;;;;;;;;15.00;80.60;;;;;;5976383;23;20088;-93
2023/05/22 07:10:20;;;;;;;24.20;11.48;;;15.00;80.80;;;;;;6025924;23;19917;-95
2023/05/22 07:12:45;;;;;;;22.65;12.20;;;15.00;80.50;;;;;;6053084;23;20026;-92
2023/05/22 07:15:13;;;;;;;20.45;11.23;;;15.00;80.40;;;;;;6031841;23;20097;-93
2023/05/22 07:18:02;;;;;;;17.15;10.20;;;15.00;80.20;;;;;;6012862;23;20019;-96
2023/05/22 07:20:44;;;;;;;18.83;10.65;;;15.00;80.30;;;;;;5989073;23;20066;-92
2023/05/22 07:23:33;;;;;;;17.73;9.95;;;15.00;80.20;;;;;;5990156;23;20091;-92
2023/05/22 07:26:21;;;;;;;18.75;10.40;;;15.00;80.20;;;;;;6005311;23;20023;-93
2023/05/22 07:35:46;;;;;;;15.50;7.97;;;15.10;80.10;;;;;;5988136;23;20027;-94
2023/05/22 07:41:45;;;;;;;13.32;8.57;;;15.10;79.80;;;;;;6071950;23;20018;-93
2023/05/22 07:44:22;;;;;;;15.13;8.70;;;15.10;79.80;;;;;;6072497;23;20490;-94
2023/05/22 07:47:00;;;;;;;18.10;8.40;;;15.10;79.70;;;;;;6074275;23;20022;-96
2023/05/22 07:49:46;;;;;;;19.33;8.75;;;15.20;79.60;;;;;;6042858;23;20307;-94
2023/05/22 07:52:25;;;;;;;;;;;;;;;;;;;;;
2023/05/22 07:55:02;;;;;;;17.92;9.63;;;15.10;79.60;;;;;;6106828;23;20023;-93
2023/05/22 07:57:31;;;;;;;17.38;9.13;;;15.10;79.60;;;;;;6135900;23;20227;-92
2023/05/22 08:00:25;;;;;;;18.77;9.30;;;15.10;79.60;;;;;;6139343;23;20012;-91
2023/05/22 08:03:06;;;;;;;17.88;9.88;;;15.10;79.50;;;;;;6095960;23;20021;-92
2023/05/22 08:05:45;;;;;;;16.00;9.02;;;15.10;79.60;;;;;;6110140;23;20021;-93
2023/05/22 08:08:23;;;;;;;15.38;9.70;;;15.10;79.50;;;;;;6109330;23;20025;-94
2023/05/22 08:11:24;;;;;;;;;;;;;;;;;;;;;
2023/05/22 08:16:59;;;;;;;18.45;9.90;;;15.10;79.50;;;;;;6163217;23;20024;-91
2023/05/22 08:19:47;;;;;;;;;;;15.10;79.40;;;;;;6114504;23;20052;-93
2023/05/22 08:22:27;;;;;;;20.33;10.63;;;15.10;79.30;;;;;;6142656;23;20219;-93
2023/05/22 08:25:00;;;;;;;16.38;10.45;;;15.10;79.30;;;;;;6123533;23;20071;-91
2023/05/22 08:28:04;;;;;;;19.70;11.05;;;15.20;79.40;;;;;;6093931;23;20021;-94
2023/05/22 08:30:42;;;;;;;18.67;11.07;;;15.20;79.30;;;;;;6107640;23;20023;-92
2023/05/22 08:33:18;;;;;;;15.18;9.75;;;15.20;79.40;;;;;;6058399;23;20021;-93
2023/05/22 08:39:22;;;;;;;18.20;10.23;;;15.20;79.20;;;;;;6131527;23;20036;-94
2023/05/22 08:42:07;;;;;;;20.73;10.88;;;15.20;79.10;;;;;;6105971;23;20019;-94
2023/05/22 08:45:08;;;;;;;16.52;10.35;;;15.20;79.10;;;;;;6118458;23;20103;-93
2023/05/22 08:47:59;;;;;;;21.73;10.98;;;15.20;79.30;;;;;;6107635;23;20317;-94
2023/05/22 08:50:51;;;;;;;;;;;;;;;;;;;;;
2023/05/22 08:53:47;;;;;;;20.48;11.65;;;15.20;79.20;;;;;;6135167;23;20020;-94
2023/05/22 08:56:32;;;;;;;20.33;11.90;;;15.10;79.10;;;;;;6110773;23;20044;-94
2023/05/22 08:59:42;;;;;;;;;;;;;;;;;;;;;
2023/05/22 09:02:35;;;;;;;14.57;10.88;;;15.10;79.30;;;;;;6122533;23;20049;-92
2023/05/22 09:05:04;;;;;;;18.55;11.10;;;15.20;79.20;;;;;;6116319;23;20734;-91
2023/05/22 09:07:29;;;;;;;21.92;12.23;;;15.20;79.20;;;;;;6158894;23;20736;-91
2023/05/22 09:09:59;;;;;;;15.70;11.45;;;15.20;79.10;;;;;;6163235;23;20132;-90
2023/05/22 09:12:26;;;;;;;21.05;12.02;;;15.20;79.10;;;;;;6162498;23;20013;-91
2023/05/22 09:14:52;;;;;;;22.98;12.68;;;15.10;79.20;;;;;;6112422;23;20090;-91
2023/05/22 09:17:20;;;;;;;18.80;12.45;;;15.20;79.20;;;;;;6111339;23;20448;-90
2023/05/22 09:19:46;;;;;;;19.80;13.20;;;15.20;79.20;;;;;;6137735;23;20023;-91
2023/05/22 09:22:37;;;;;;;19.00;12.43;;;15.30;79.30;;;;;;6136586;23;20261;-96
2023/05/22 09:25:03;;;;;;;19.70;13.45;;;15.30;79.20;;;;;;6081737;23;20332;-91
2023/05/22 09:27:29;;;;;;;23.85;13.02;;;15.40;79.30;;;;;;6089414;23;20021;-91
2023/05/22 09:29:56;;;;;;;17.67;12.90;;;15.40;79.30;;;;;;6109309;23;20021;-91
2023/05/22 09:32:23;;;;;;;17.92;12.85;;;15.50;79.20;;;;;;6108387;23;20760;-91
2023/05/22 09:34:49;;;;;;;21.85;12.82;;;15.60;79.20;;;;;;6134559;23;20020;-91
2023/05/22 09:37:16;;;;;;;18.17;12.43;;;15.60;79.00;;;;;;6082271;23;20017;-90
2023/05/22 09:39:44;;;;;;;24.98;13.52;;;15.70;79.00;;;;;;6084649;23;20025;-90
2023/05/22 09:42:17;;;;;;;23.13;13.07;;;15.80;79.20;;;;;;6131871;23;20013;-93
2023/05/22 09:44:48;;;;;;;20.73;14.02;;;16.00;79.00;;;;;;6108213;23;20440;-90
2023/05/22 09:47:17;;;;;;;19.15;12.55;;;16.10;79.00;;;;;;6080759;23;20545;-94
2023/05/22 09:49:45;;;;;;;19.48;13.35;;;16.10;78.70;;;;;;6108979;23;20017;-91
2023/05/22 09:52:11;;;;;;;26.80;13.82;;;16.20;78.50;;;;;;6119088;23;20367;-93
2023/05/22 09:54:59;;;;;;;24.58;13.98;;;16.40;78.60;;;;;;6109824;23;20020;-91
2023/05/22 09:57:30;;;;;;;26.88;14.50;;;16.50;78.60;;;;;;6127104;23;20083;-93
2023/05/22 09:59:57;;;;;;;24.55;14.35;;;16.60;78.30;;;;;;6085366;23;20563;-90
2023/05/22 10:02:25;;;;;;;21.25;14.10;;;16.70;78.00;;;;;;6094225;23;20045;-91
2023/05/22 10:04:53;;;;;;;21.73;13.68;;;16.80;78.00;;;;;;6107362;23;20369;-91
2023/05/22 10:07:26;;;;;;;25.27;14.77;;;16.90;77.80;;;;;;6105352;23;20083;-93
2023/05/22 10:10:04;;;;;;;22.75;14.45;;;17.00;78.00;;;;;;6107801;23;20113;-91
2023/05/22 10:12:34;;;;;;;24.95;15.07;;;17.20;77.80;;;;;;6108118;23;20017;-92
2023/05/22 10:15:22;;;;;;;23.85;14.73;;;17.40;77.30;;;;;;6110063;23;20313;-93
2023/05/22 10:18:36;;;;;;;26.83;14.43;;;17.50;77.40;;;;;;6070553;23;20028;-95
2023/05/22 10:21:09;;;;;;;23.10;14.75;;;17.60;76.90;;;;;;6095028;23;20052;-95
2023/05/22 10:23:35;;;;;;;21.77;14.65;;;17.80;77.00;;;;;;6119767;23;20063;-90
2023/05/22 10:26:27;;;;;;;31.30;15.90;;;17.80;77.10;;;;;;6085769;23;20021;-92
2023/05/22 10:29:20;;;;;;;24.90;16.08;;;18.00;76.70;;;;;;6074255;23;20352;-92
2023/05/22 10:32:12;;;;;;;24.40;15.68;;;18.00;76.60;;;;;;6110284;23;20083;-94
2023/05/22 10:34:55;;;;;;;27.75;14.60;;;18.10;75.00;;;;;;6121251;23;20750;-94
2023/05/22 10:38:09;;;;;;;23.52;15.20;;;18.20;75.90;;;;;;6109485;23;20028;-94
2023/05/22 10:41:33;;;;;;;;;;;;;;;;;;;;;
2023/05/22 10:48:32;;;;;;;24.30;16.15;;;18.20;74.90;;;;;;6010997;23;20028;-92
2023/05/22 10:51:28;;;;;;;29.52;16.77;;;18.10;75.20;;;;;;6104859;23;20013;-94
2023/05/22 10:57:38;;;;;;;27.35;18.13;;;18.20;75.40;;;;;;6087850;23;20025;-92
2023/05/22 11:00:41;;;;;;;29.02;17.55;;;18.20;75.30;;;;;;6063419;23;20735;-91
2023/05/22 11:03:30;;;;;;;28.55;17.45;;;18.10;74.30;;;;;;6041279;23;20128;-94
2023/05/22 11:06:40;;;;;;;34.45;17.52;;;18.10;74.90;;;;;;6113928;23;20024;-96
2023/05/22 11:09:54;;;;;;;;;;;;;;;;;;;;;
2023/05/22 11:12:36;;;;;;;23.35;16.23;;;18.00;74.90;;;;;;6162441;23;20110;-92
2023/05/22 11:15:21;;;;;;;;;;;;;;;;;;;;;
2023/05/22 11:18:26;;;;;;;25.67;16.73;;;18.00;74.30;;;;;;6125897;23;20028;-95
2023/05/22 11:21:00;;;;;;;23.50;16.33;;;18.00;74.10;;;;;;6169159;23;20024;-94
2023/05/22 11:23:26;;;;;;;25.55;17.52;;;18.00;74.50;;;;;;6124170;23;20806;-94
2023/05/22 11:26:19;;;;;;;27.27;16.08;;;18.00;74.70;;;;;;6141582;23;20024;-95
2023/05/22 11:29:41;;;;;;;28.15;17.30;;;18.10;74.70;;;;;;6113551;23;20074;-95
2023/05/22 11:32:44;;;;;;;;;;;;;;;;;;;;;
2023/05/22 11:35:36;;;;;;;27.27;16.48;;;18.50;74.90;;;;;;6071604;23;20786;-93
2023/05/22 11:38:47;;;;;;;32.42;17.98;;;18.60;74.40;;;;;;6138173;23;20095;-94
2023/05/22 11:41:54;;;;;;;33.30;17.42;;;18.70;73.80;;;;;;6038412;23;20194;-92
2023/05/22 11:44:36;;;;;;;26.50;17.42;;;18.70;74.10;;;;;;6053654;23;20056;-91
2023/05/22 11:48:04;;;;;;;28.30;16.75;;;18.80;74.20;;;;;;6182259;23;20388;-94
2023/05/22 12:02:01;;;;;;;;;;;;;;;;;;;;;
2023/05/22 12:28:06;;;;;;;;;;;;;;;;;;;;;
2023/05/22 12:30:40;;;;;;;35.97;19.60;;;19.90;73.40;;;;;;5789870;24;20023;-95
2023/05/22 12:33:12;;;;;;;30.98;19.17;;;19.90;73.20;;;;;;5983725;23;20041;-93
2023/05/22 12:35:41;;;;;;;30.42;18.65;;;19.70;73.20;;;;;;6001501;23;20331;-91
2023/05/22 12:38:08;;;;;;;30.58;17.77;;;19.70;73.40;;;;;;6138691;23;20024;-93
2023/05/22 12:41:06;;;;;;;;;;;;;;;;;;;;;
2023/05/22 12:43:48;;;;;;;30.42;18.15;;;19.50;73.00;;;;;;6152152;23;20029;-94
2023/05/22 12:46:19;;;;;;;32.08;18.05;;;19.40;73.20;;;;;;6140987;23;20391;-93
2023/05/22 12:48:47;;;;;;;28.48;17.48;;;19.30;73.20;;;;;;6108379;23;20721;-93
2023/05/22 12:51:16;;;;;;;28.42;18.90;;;19.30;73.30;;;;;;6138081;23;20961;-91
2023/05/22 12:53:42;;;;;;;26.15;18.17;;;19.30;73.40;;;;;;6087244;23;20128;-93
2023/05/22 12:56:08;;;;;;;29.02;19.15;;;19.30;73.30;;;;;;6091446;23;20196;-92
2023/05/22 12:58:37;;;;;;;30.17;18.85;;;19.30;73.40;;;;;;6092372;23;20899;-93
2023/05/22 13:01:08;;;;;;;31.48;19.05;;;19.40;73.40;;;;;;6124868;23;20560;-92
2023/05/22 13:03:43;;;;;;;29.73;19.00;;;19.40;73.20;;;;;;6095372;23;20036;-94
2023/05/22 13:06:32;;;;;;;28.60;20.05;;;19.40;73.00;;;;;;6099433;23;20620;-93
2023/05/22 13:12:22;;;;;;;31.35;19.73;;;19.40;73.20;;;;;;6156757;23;20032;-93
2023/05/22 13:14:48;;;;;;;25.92;17.98;;;19.30;73.00;;;;;;6147180;23;20049;-93
2023/05/22 13:17:17;;;;;;;29.92;18.77;;;19.30;72.70;;;;;;6110950;23;20051;-94
2023/05/22 13:19:47;;;;;;;23.88;17.05;;;19.20;72.50;;;;;;6115067;23;20024;-92
2023/05/22 13:22:30;;;;;;;29.58;17.27;;;19.20;72.60;;;;;;6053775;23;20017;-93
2023/05/22 13:24:59;;;;;;;27.20;17.42;;;19.20;72.70;;;;;;6094772;23;20515;-92
2023/05/22 13:27:26;;;;;;;24.40;17.48;;;19.10;72.50;;;;;;6148264;23;20478;-88
2023/05/22 13:29:55;;;;;;;25.52;17.95;;;19.10;72.40;;;;;;6147962;23;20020;-93
2023/05/22 13:32:23;;;;;;;23.33;17.38;;;19.00;72.40;;;;;;6122290;23;20020;-91
2023/05/22 13:34:49;;;;;;;23.15;17.60;;;18.90;72.60;;;;;;6151193;23;20404;-92
2023/05/22 13:37:20;;;;;;;29.45;18.70;;;18.90;72.50;;;;;;6099570;23;20116;-93
2023/05/22 13:39:48;;;;;;;29.55;17.05;;;18.80;72.60;;;;;;6129200;23;20019;-92
2023/05/22 13:42:27;;;;;;;27.23;17.02;;;18.80;72.50;;;;;;6123593;23;20020;-91
2023/05/22 13:44:59;;;;;;;25.35;17.50;;;18.70;72.50;;;;;;6177230;23;20074;-93
2023/05/22 13:47:31;;;;;;;24.67;17.20;;;18.60;72.20;;;;;;6146472;23;20020;-93
2023/05/22 13:50:26;;;;;;;27.63;17.27;;;18.50;72.30;;;;;;6120972;23;20078;-92
2023/05/22 13:52:52;;;;;;;23.35;17.13;;;18.40;72.10;;;;;;6121446;23;20075;-93
2023/05/22 13:55:18;;;;;;;24.92;17.33;;;18.30;72.30;;;;;;6146839;23;20027;-92
2023/05/22 13:57:43;;;;;;;25.15;17.13;;;18.30;72.50;;;;;;6168476;23;20882;-92
2023/05/22 14:00:15;;;;;;;31.67;17.30;;;18.30;72.50;;;;;;6176361;23;20099;-91
2023/05/22 14:03:24;;;;;;;25.58;17.40;;;18.20;72.40;;;;;;6101797;23;20021;-93
2023/05/22 14:09:22;;;;;;;24.63;18.05;;;18.50;71.90;;;;;;6065735;23;20021;-94
2023/05/22 14:12:34;;;;;;;;;;;;;;;;;;;;;
2023/05/22 14:22:18;;;;;;;24.48;17.92;;;18.40;72.20;;;;;;5932672;23;20020;-95
2023/05/22 14:25:01;;;;;;;;;;;18.40;72.10;;;;;;6028414;23;20057;-94
2023/05/22 14:28:18;;;;;;;25.48;17.73;;;18.40;71.80;;;;;;6020994;23;20144;-94
2023/05/22 14:30:41;;;;;;;23.30;17.80;;;18.40;72.00;;;;;;6013952;23;20231;-94
2023/05/22 14:41:47;;;;;;;26.42;17.55;;;18.60;72.40;;;;;;5931343;24;20333;-95
2023/05/22 14:44:08;;;;;;;26.27;17.27;;;18.80;71.80;;;;;;5884482;24;20077;-96
2023/05/22 14:46:58;;;;;;;;;;;;;;;;;;;;;
2023/05/22 14:53:31;;;;;;;;;;;19.10;71.70;;;;;;5870611;24;20029;-93
2023/05/22 15:00:45;;;;;;;22.58;14.65;;;19.20;70.90;;;;;;5913052;23;20068;-96
2023/05/22 15:03:41;;;;;;;23.67;14.68;;;19.20;70.90;;;;;;6003510;23;20026;-96
2023/05/22 15:14:14;;;;;;;19.23;12.68;;;19.30;70.50;;;;;;5813420;24;20111;-95
2023/05/22 15:16:45;;;;;;;20.50;12.68;;;19.30;71.20;;;;;;5776599;24;20037;-95
2023/05/22 15:19:56;;;;;;;25.42;13.32;;;19.40;71.10;;;;;;5771590;24;20027;-96
2023/05/22 15:22:49;;;;;;;18.95;12.77;;;19.40;70.40;;;;;;5725142;24;20444;-96
2023/05/22 15:25:15;;;;;;;16.48;12.27;;;19.40;69.90;;;;;;5744530;24;20857;-94
2023/05/22 15:27:47;;;;;;;21.98;12.60;;;19.40;70.40;;;;;;5743348;24;20042;-93
2023/05/22 15:31:18;;;;;;;20.27;13.57;;;19.40;70.00;;;;;;5715050;24;20018;-94
2023/05/22 15:34:21;;;;;;;15.13;10.73;;;19.40;69.50;;;;;;5800742;24;20030;-95
2023/05/22 15:41:12;;;;;;;13.13;11.15;;;19.40;69.70;;;;;;5883144;24;20353;-95
2023/05/22 15:44:32;;;;;;;13.93;10.40;;;19.40;69.60;;;;;;5909681;24;20039;-96
2023/05/22 15:46:58;;;;;;;13.73;9.65;;;19.40;69.60;;;;;;5914012;23;20026;-95
2023/05/22 15:49:24;;;;;;;10.85;9.07;;;19.50;70.00;;;;;;6033717;23;20085;-94
2023/05/22 15:51:52;;;;;;;11.43;8.43;;;19.40;69.50;;;;;;6140026;23;20432;-93
2023/05/22 15:54:30;;;;;;;13.88;9.20;;;19.40;69.40;;;;;;6140763;23;20017;-95
2023/05/22 15:58:01;;;;;;;14.10;8.45;;;19.40;69.00;;;;;;6138767;23;20021;-94
2023/05/22 16:00:39;;;;;;;10.82;7.53;;;19.30;69.10;;;;;;6190000;23;20150;-96
2023/05/22 16:04:10;;;;;;;16.67;7.72;;;19.30;69.70;;;;;;6099397;23;20024;-94
2023/05/22 16:06:55;;;;;;;9.23;6.50;;;19.30;69.00;;;;;;6062868;23;20475;-95
2023/05/22 16:09:49;;;;;;;9.68;6.80;;;19.20;69.20;;;;;;6045839;23;20022;-96
2023/05/22 16:16:49;;;;;;;14.98;8.02;;;19.10;69.40;;;;;;6116752;23;20015;-96
2023/05/22 16:23:23;;;;;;;12.15;8.32;;;19.00;69.80;;;;;;6116656;23;20484;-95
2023/05/22 16:26:08;;;;;;;15.57;9.15;;;18.90;69.90;;;;;;6082910;23;20026;-94
2023/05/22 16:28:43;;;;;;;18.52;9.80;;;18.90;69.60;;;;;;6096405;23;20025;-93
2023/05/22 16:35:10;;;;;;;17.48;9.45;;;18.70;70.10;;;;;;6074996;23;20026;-95
2023/05/22 16:37:47;;;;;;;14.82;9.38;;;18.60;70.20;;;;;;6126709;23;20017;-95
2023/05/22 16:40:13;;;;;;;13.35;9.68;;;18.50;70.30;;;;;;6132575;23;20021;-94
2023/05/22 16:42:39;;;;;;;17.58;10.00;;;18.40;70.40;;;;;;6111547;23;20028;-94
2023/05/22 16:45:38;;;;;;;15.90;9.95;;;18.20;70.50;;;;;;6120491;23;20635;-96
2023/05/22 16:48:17;;;;;;;18.77;9.93;;;18.10;70.70;;;;;;6104352;23;20029;-95
2023/05/22 16:50:45;;;;;;;13.75;9.48;;;18.00;70.80;;;;;;6130882;23;20014;-95
2023/05/22 16:53:17;;;;;;;15.30;9.88;;;18.00;70.90;;;;;;6065856;23;20682;-95
2023/05/22 16:56:19;;;;;;;12.55;9.60;;;17.90;71.10;;;;;;6132836;23;20017;-95
2023/05/22 16:58:54;;;;;;;12.80;8.70;;;17.80;71.20;;;;;;6129075;23;20025;-94
2023/05/22 17:01:51;;;;;;;12.52;8.60;;;17.80;71.30;;;;;;6139058;23;20344;-95
2023/05/22 17:04:41;;;;;;;14.27;8.43;;;17.80;71.50;;;;;;6082793;23;20025;-95
2023/05/22 17:07:22;;;;;;;10.75;7.88;;;17.80;71.60;;;;;;6106849;23;20021;-94
2023/05/22 17:09:48;;;;;;;12.52;7.70;;;17.70;71.60;;;;;;6087342;23;20017;-94
2023/05/22 17:12:50;;;;;;;11.38;7.00;;;17.70;71.70;;;;;;6141222;23;20017;-95
2023/05/22 17:16:04;;;;;;;;;;;;;;;;;;;;;
2023/05/22 17:19:09;;;;;;;9.73;6.90;;;17.70;71.60;;;;;;6081730;23;20054;-95
2023/05/22 17:22:02;;;;;;;15.82;7.93;;;17.60;71.40;;;;;;6067643;23;20022;-91
2023/05/22 17:24:30;;;;;;;14.63;8.10;;;17.50;71.60;;;;;;6043732;23;20026;-96
2023/05/22 17:29:55;;;;;;;15.65;8.80;;;17.20;72.00;;;;;;6055165;23;20076;-95
2023/05/22 17:32:36;;;;;;;17.80;8.48;;;17.00;72.30;;;;;;6108128;23;20017;-96
2023/05/22 17:35:04;;;;;;;14.15;9.13;;;16.90;72.60;;;;;;6127838;23;20021;-94
2023/05/22 17:37:30;;;;;;;16.48;9.25;;;16.90;72.70;;;;;;6128412;23;20471;-95
2023/05/22 17:43:41;;;;;;;14.80;9.87;;;16.70;73.20;;;;;;6183234;23;20037;-94
2023/05/22 17:49:47;;;;;;;12.93;8.02;;;16.70;73.50;;;;;;6086718;23;20026;-96
2023/05/22 17:55:54;;;;;;;14.98;8.98;;;16.60;73.40;;;;;;5951449;24;20072;-92
2023/05/22 17:59:17;;;;;;;14.43;9.32;;;16.50;74.10;;;;;;5799752;24;20035;-95
2023/05/22 18:01:43;;;;;;;17.23;9.23;;;16.40;73.90;;;;;;5795398;24;20098;-94
2023/05/22 18:11:35;;;;;;;13.90;8.75;;;16.10;74.40;;;;;;5779740;24;20027;-94
2023/05/22 18:14:38;;;;;;;12.88;8.77;;;16.10;74.70;;;;;;5860393;24;20028;-95
2023/05/22 18:17:39;;;;;;;;;;;16.00;75.00;;;;;;5946056;24;20029;-94
2023/05/22 18:20:20;;;;;;;16.17;9.73;;;16.00;75.50;;;;;;5964659;24;19918;-94
2023/05/22 18:23:15;;;;;;;15.77;9.30;;;15.80;74.80;;;;;;6002516;23;20037;-94
2023/05/22 18:25:41;;;;;;;14.82;10.30;;;15.80;75.00;;;;;;6016811;23;20067;-94
2023/05/22 18:28:10;;;;;;;17.60;11.00;;;15.70;74.90;;;;;;6032539;23;20117;-95
2023/05/22 18:30:58;;;;;;;13.38;10.25;;;15.60;75.00;;;;;;6048839;23;20070;-93
2023/05/22 18:34:10;;;;;;;14.57;11.40;;;15.50;75.30;;;;;;6072367;23;20018;-95
2023/05/22 18:36:36;;;;;;;18.42;10.77;;;15.40;75.50;;;;;;6070642;23;20678;-94
2023/05/22 18:40:48;;;;;;;;;;;;;;;;;;;;;
2023/05/22 18:43:26;;;;;;;16.90;11.63;;;15.20;76.10;;;;;;5992830;23;20028;-94
2023/05/22 18:53:57;;;;;;;;;;;;;;;;;;;;;
2023/05/22 19:15:29;;;;;;;20.20;17.42;;;14.70;77.00;;;;;;5983503;23;20026;-95
2023/05/22 19:25:37;;;;;;;21.48;15.80;;;14.60;76.80;;;;;;5952185;24;20027;-94
2023/05/22 19:28:04;;;;;;;23.10;16.85;;;14.40;77.20;;;;;;5924582;24;20488;-89
2023/05/22 19:30:29;;;;;;;26.27;17.90;;;14.30;77.10;;;;;;5944688;23;20102;-89